Time;durP1;ratioP1;P1;durP2;ratioP2;P2;SDS_P1;SDS_P2;PMS_P1;PMS_P2;Temp;Humidity;BMP_temperature;BMP_pressure;BME280_temperature;BME280_humidity;BME280_pressure;Samples;Min_cycle;Max_cycle;Signal;HPM_P1;HPM_P2
2022/04/28 00:00:31;;;;;;;12.10;9.55;;;;;;;;;;5031952;28;20049;-67
2022/04/28 00:02:58;;;;;;;11.30;10.10;;;;;;;;;;5031644;28;20080;-67
2022/04/28 00:05:24;;;;;;;13.15;10.20;;;;;;;;;;5038165;28;20045;-68
2022/04/28 00:07:52;;;;;;;11.20;10.00;;;;;;;;;;5051966;28;20478;-67
2022/04/28 00:10:19;;;;;;;12.27;9.70;;;;;;;;;;5051924;28;20052;-68
2022/04/28 00:12:45;;;;;;;12.07;9.82;;;;;;;;;;5051559;28;20487;-67
2022/04/28 00:15:12;;;;;;;14.13;11.00;;;;;;;;;;5051888;28;20049;-67
2022/04/28 00:17:39;;;;;;;11.45;9.70;;;;;;;;;;5051808;28;20056;-68
2022/04/28 00:20:06;;;;;;;11.70;10.50;;;;;;;;;;5036978;28;20055;-68
2022/04/28 00:22:33;;;;;;;14.90;10.45;;;;;;;;;;5031665;28;20053;-68
2022/04/28 00:25:00;;;;;;;11.07;9.88;;;;;;;;;;5031657;28;20049;-68
2022/04/28 00:27:26;;;;;;;11.95;10.43;;;;;;;;;;5032202;28;20053;-68
2022/04/28 00:29:53;;;;;;;14.57;11.00;;;;;;;;;;5031660;28;20060;-68
2022/04/28 00:32:20;;;;;;;12.45;10.73;;;;;;;;;;5033093;28;20046;-67
2022/04/28 00:34:49;;;;;;;11.65;10.10;;;;;;;;;;5041274;28;20049;-68
2022/04/28 00:37:18;;;;;;;11.63;10.43;;;;;;;;;;5051591;28;20438;-68
2022/04/28 00:39:45;;;;;;;12.70;11.07;;;;;;;;;;5051741;28;20076;-69
2022/04/28 00:42:13;;;;;;;11.98;10.65;;;;;;;;;;5051269;28;20048;-68
2022/04/28 00:44:39;;;;;;;11.82;10.55;;;;;;;;;;5051606;28;20045;-68
2022/04/28 00:47:07;;;;;;;14.38;11.15;;;;;;;;;;5032935;28;20049;-67
2022/04/28 00:52:19;;;;;;;12.75;10.73;;;;;;;;;;5035584;28;20045;-68
2022/04/28 00:54:47;;;;;;;14.13;12.18;;;;;;;;;;5035213;28;20053;-68
2022/04/28 00:57:13;;;;;;;14.15;11.05;;;;;;;;;;5035365;28;20056;-68
2022/04/28 00:59:40;;;;;;;13.45;11.13;;;;;;;;;;5035588;28;20153;-68
2022/04/28 01:02:08;;;;;;;13.50;11.98;;;;;;;;;;5035206;28;20527;-68
2022/04/28 01:04:35;;;;;;;15.63;11.93;;;;;;;;;;5035181;28;20493;-68
2022/04/28 01:07:03;;;;;;;12.55;11.25;;;;;;;;;;5035321;28;20080;-68
2022/04/28 01:09:30;;;;;;;12.35;11.02;;;;;;;;;;5035127;28;20120;-68
2022/04/28 01:11:57;;;;;;;12.25;10.88;;;;;;;;;;5036045;28;20045;-67
2022/04/28 01:14:23;;;;;;;14.07;12.10;;;;;;;;;;5054836;28;20411;-67
2022/04/28 01:16:50;;;;;;;14.15;11.23;;;;;;;;;;5054825;28;20057;-67
2022/04/28 01:19:16;;;;;;;13.43;11.40;;;;;;;;;;5053631;28;20132;-68
2022/04/28 01:21:43;;;;;;;14.48;10.98;;;;;;;;;;5053361;28;20427;-67
2022/04/28 01:24:12;;;;;;;16.17;12.38;;;;;;;;;;5054478;28;20055;-68
2022/04/28 01:26:38;;;;;;;12.50;11.20;;;;;;;;;;5019696;28;20056;-67
2022/04/28 01:29:05;;;;;;;13.52;11.18;;;;;;;;;;5036990;28;20056;-67
2022/04/28 01:31:32;;;;;;;14.10;11.93;;;;;;;;;;5054517;28;20049;-67
2022/04/28 01:33:58;;;;;;;16.10;11.50;;;;;;;;;;5054378;28;20053;-68
2022/04/28 01:36:25;;;;;;;20.27;12.05;;;;;;;;;;5054551;28;20546;-68
2022/04/28 01:38:52;;;;;;;15.57;11.35;;;;;;;;;;5054660;28;20049;-68
2022/04/28 01:41:19;;;;;;;15.32;11.77;;;;;;;;;;5052182;28;20463;-68
2022/04/28 01:43:45;;;;;;;14.73;11.90;;;;;;;;;;5054380;28;20049;-68
2022/04/28 01:46:13;;;;;;;15.13;11.70;;;;;;;;;;5054437;28;20059;-67
2022/04/28 01:48:39;;;;;;;13.20;11.48;;;;;;;;;;5054337;28;20064;-68
2022/04/28 01:56:36;;;;;;;20.73;15.30;;;;;;;;;;5054450;28;20049;-65
2022/04/28 01:59:03;;;;;;;17.08;12.45;;;;;;;;;;5054129;28;20052;-68
2022/04/28 02:01:29;;;;;;;15.15;12.70;;;;;;;;;;5038636;28;20103;-67
2022/04/28 02:03:56;;;;;;;14.30;12.80;;;;;;;;;;5034117;28;20459;-67
2022/04/28 02:06:23;;;;;;;13.93;12.18;;;;;;;;;;5034285;28;20096;-67
2022/04/28 02:08:50;;;;;;;17.95;12.68;;;;;;;;;;5016896;28;20421;-67
2022/04/28 02:11:17;;;;;;;16.63;13.77;;;;;;;;;;5033755;28;20049;-68
2022/04/28 02:13:43;;;;;;;14.23;12.38;;;;;;;;;;5046898;23;20293;-68
2022/04/28 02:16:10;;;;;;;15.68;13.63;;;;;;;;;;4994555;28;20087;-69
2022/04/28 02:18:37;;;;;;;16.38;14.13;;;;;;;;;;4994744;28;20169;-68
2022/04/28 02:21:04;;;;;;;18.40;14.32;;;;;;;;;;4994443;28;20475;-69
2022/04/28 02:23:30;;;;;;;19.17;14.88;;;;;;;;;;4994571;28;20108;-69
2022/04/28 02:25:57;;;;;;;17.42;13.52;;;;;;;;;;4994548;28;20101;-68
2022/04/28 02:28:24;;;;;;;16.08;13.75;;;;;;;;;;4994390;28;20054;-68
2022/04/28 02:30:51;;;;;;;21.52;15.95;;;;;;;;;;4994175;28;20497;-69
2022/04/28 02:33:19;;;;;;;16.88;13.82;;;;;;;;;;4994619;28;20468;-68
2022/04/28 02:35:45;;;;;;;19.08;13.52;;;;;;;;;;4994165;28;20054;-68
2022/04/28 02:38:12;;;;;;;16.15;13.50;;;;;;;;;;4994518;28;20054;-68
2022/04/28 02:40:39;;;;;;;16.00;13.02;;;;;;;;;;4994189;28;20622;-69
2022/04/28 02:43:05;;;;;;;16.52;13.43;;;;;;;;;;4994199;28;20058;-68
2022/04/28 02:45:32;;;;;;;16.40;13.35;;;;;;;;;;4994294;28;20116;-69
2022/04/28 02:47:59;;;;;;;16.30;13.63;;;;;;;;;;4994100;28;20199;-69
2022/04/28 02:50:26;;;;;;;18.83;13.90;;;;;;;;;;4994186;28;20190;-68
2022/04/28 02:52:53;;;;;;;17.80;13.95;;;;;;;;;;4992630;28;20121;-68
2022/04/28 02:55:20;;;;;;;15.55;13.18;;;;;;;;;;4993771;28;20054;-69
2022/04/28 02:57:47;;;;;;;18.13;13.98;;;;;;;;;;4994076;28;20081;-69
2022/04/28 03:00:14;;;;;;;17.73;13.73;;;;;;;;;;4993839;28;20046;-68
2022/04/28 03:02:41;;;;;;;15.35;13.05;;;;;;;;;;4987499;28;20058;-68
2022/04/28 03:05:08;;;;;;;16.92;13.88;;;;;;;;;;4984596;28;20504;-69
2022/04/28 03:13:17;;;;;;;16.25;12.38;;;;;;;;;;4993266;28;20058;-69
2022/04/28 03:15:45;;;;;;;15.27;13.00;;;;;;;;;;4993536;28;20047;-69
2022/04/28 03:18:16;;;;;;;15.57;12.27;;;;;;;;;;4993308;28;20254;-69
2022/04/28 03:20:43;;;;;;;14.77;12.48;;;;;;;;;;4993558;28;20066;-68
2022/04/28 03:23:11;;;;;;;15.57;12.95;;;;;;;;;;4993548;28;20137;-68
2022/04/28 03:25:38;;;;;;;17.08;13.15;;;;;;;;;;4993722;28;20117;-69
2022/04/28 03:28:05;;;;;;;18.13;15.20;;;;;;;;;;4993335;28;20054;-69
2022/04/28 03:30:32;;;;;;;16.00;12.48;;;;;;;;;;4993238;28;20061;-69
2022/04/28 03:32:59;;;;;;;16.48;13.57;;;;;;;;;;4992808;28;20497;-69
2022/04/28 03:35:26;;;;;;;15.48;11.93;;;;;;;;;;4993089;28;20089;-68
2022/04/28 03:37:52;;;;;;;16.55;12.77;;;;;;;;;;4993170;28;20353;-69
2022/04/28 03:40:19;;;;;;;17.70;13.40;;;;;;;;;;4993139;28;20058;-69
2022/04/28 03:42:46;;;;;;;16.25;12.55;;;;;;;;;;4992886;28;20050;-68
2022/04/28 03:45:13;;;;;;;14.38;11.40;;;;;;;;;;4994185;28;20050;-70
2022/04/28 03:47:40;;;;;;;17.52;14.20;;;;;;;;;;4994491;28;20058;-69
2022/04/28 03:50:08;;;;;;;17.27;12.77;;;;;;;;;;4994584;28;20054;-68
2022/04/28 03:52:35;;;;;;;14.27;12.43;;;;;;;;;;4993875;28;20054;-69
2022/04/28 03:55:05;;;;;;;15.55;12.43;;;;;;;;;;4994870;28;20050;-69
2022/04/28 03:57:32;;;;;;;16.33;13.38;;;;;;;;;;4993552;28;20082;-69
2022/04/28 03:59:59;;;;;;;15.32;12.02;;;;;;;;;;4994348;28;20054;-69
2022/04/28 04:02:26;;;;;;;14.60;12.52;;;;;;;;;;4992753;28;20050;-69
2022/04/28 04:04:53;;;;;;;15.27;12.93;;;;;;;;;;4992968;28;20055;-68
2022/04/28 04:07:20;;;;;;;15.05;12.07;;;;;;;;;;4992642;28;20054;-69
2022/04/28 04:09:46;;;;;;;15.68;13.02;;;;;;;;;;4991598;28;20054;-68
2022/04/28 04:12:18;;;;;;;15.40;12.13;;;;;;;;;;4992246;28;20386;-68
2022/04/28 04:14:45;;;;;;;14.48;12.63;;;;;;;;;;4992242;28;20050;-69
2022/04/28 04:17:12;;;;;;;17.05;13.18;;;;;;;;;;4992716;28;20460;-69
2022/04/28 04:19:38;;;;;;;17.13;14.20;;;;;;;;;;4992810;28;20050;-69
2022/04/28 04:22:05;;;;;;;17.80;12.93;;;;;;;;;;4992871;28;20061;-69
2022/04/28 04:24:32;;;;;;;26.60;13.50;;;;;;;;;;4988509;28;20046;-68
2022/04/28 04:26:58;;;;;;;20.58;14.07;;;;;;;;;;4972866;28;20102;-68
2022/04/28 04:29:25;;;;;;;17.13;14.10;;;;;;;;;;4973315;28;20050;-68
2022/04/28 04:34:37;;;;;;;19.40;14.55;;;;;;;;;;4972996;28;20106;-69
2022/04/28 04:37:07;;;;;;;20.67;15.02;;;;;;;;;;4973200;28;20050;-70
2022/04/28 04:39:34;;;;;;;19.95;14.48;;;;;;;;;;4972898;28;20054;-70
2022/04/28 04:42:00;;;;;;;20.13;14.40;;;;;;;;;;4989719;28;20050;-69
2022/04/28 04:44:27;;;;;;;18.98;14.65;;;;;;;;;;4992325;28;20050;-70
2022/04/28 04:46:53;;;;;;;17.20;13.77;;;;;;;;;;4992364;28;20489;-70
2022/04/28 04:49:20;;;;;;;16.50;13.20;;;;;;;;;;4992578;28;20118;-70
2022/04/28 04:51:47;;;;;;;17.77;14.68;;;;;;;;;;4991027;28;20424;-70
2022/04/28 04:54:13;;;;;;;16.45;14.07;;;;;;;;;;4992180;28;20053;-70
2022/04/28 04:56:40;;;;;;;17.60;14.25;;;;;;;;;;4992425;28;20047;-70
2022/04/28 04:59:06;;;;;;;18.85;14.07;;;;;;;;;;4992240;28;20054;-70
2022/04/28 05:01:33;;;;;;;18.42;14.52;;;;;;;;;;4992207;28;20073;-71
2022/04/28 05:04:00;;;;;;;24.65;16.73;;;;;;;;;;4991896;28;20042;-71
2022/04/28 05:06:27;;;;;;;21.15;15.52;;;;;;;;;;4992917;28;20049;-71
2022/04/28 05:08:55;;;;;;;22.05;16.10;;;;;;;;;;4991635;28;20120;-70
2022/04/28 05:11:22;;;;;;;20.45;13.68;;;;;;;;;;4990660;28;20521;-71
2022/04/28 05:13:48;;;;;;;17.45;13.27;;;;;;;;;;4978139;28;20050;-71
2022/04/28 05:16:15;;;;;;;16.88;12.18;;;;;;;;;;4972415;28;20078;-70
2022/04/28 05:18:42;;;;;;;19.98;13.10;;;;;;;;;;4972554;28;20086;-70
2022/04/28 05:21:08;;;;;;;15.55;12.25;;;;;;;;;;4972361;28;20561;-70
2022/04/28 05:23:35;;;;;;;15.93;12.35;;;;;;;;;;4972427;28;20533;-70
2022/04/28 05:26:02;;;;;;;15.55;12.50;;;;;;;;;;4981566;28;20042;-70
2022/04/28 05:28:28;;;;;;;16.15;12.68;;;;;;;;;;4992021;28;20457;-70
2022/04/28 05:30:55;;;;;;;15.10;12.93;;;;;;;;;;4991708;28;20061;-70
2022/04/28 05:33:22;;;;;;;15.43;12.73;;;;;;;;;;4991775;28;20053;-70
2022/04/28 05:35:49;;;;;;;15.45;12.73;;;;;;;;;;4992592;28;20042;-70
2022/04/28 05:38:16;;;;;;;17.40;12.98;;;;;;;;;;4995288;28;20497;-70
2022/04/28 05:40:42;;;;;;;15.18;12.40;;;;;;;;;;4981042;28;20055;-69
2022/04/28 05:45:57;;;;;;;15.00;12.30;;;;;;;;;;4977893;28;20486;-69
2022/04/28 05:48:24;;;;;;;15.30;12.23;;;;;;;;;;4994320;28;20088;-70
2022/04/28 05:50:51;;;;;;;16.48;11.95;;;;;;;;;;4994937;28;20050;-70
2022/04/28 05:53:18;;;;;;;19.15;12.75;;;;;;;;;;4989440;28;20400;-70
2022/04/28 05:55:46;;;;;;;16.17;12.93;;;;;;;;;;4975468;28;20054;-69
2022/04/28 05:58:12;;;;;;;16.63;13.15;;;;;;;;;;4974042;28;20061;-69
2022/04/28 06:00:39;;;;;;;14.13;12.60;;;;;;;;;;4973383;28;20528;-68
2022/04/28 06:03:06;;;;;;;17.13;12.57;;;;;;;;;;4972914;28;20065;-69
2022/04/28 06:05:32;;;;;;;14.98;11.90;;;;;;;;;;4973313;28;20082;-69
2022/04/28 06:07:59;;;;;;;18.58;13.18;;;;;;;;;;4985705;28;20382;-69
2022/04/28 06:10:26;;;;;;;15.05;11.75;;;;;;;;;;4992802;28;20046;-69
2022/04/28 06:12:52;;;;;;;14.73;11.93;;;;;;;;;;4975094;28;20473;-69
2022/04/28 06:15:19;;;;;;;13.98;11.30;;;;;;;;;;4973225;28;20080;-69
2022/04/28 06:17:46;;;;;;;14.80;12.52;;;;;;;;;;4973537;28;20099;-69
2022/04/28 06:20:12;;;;;;;16.85;12.32;;;;;;;;;;4973286;28;20051;-69
2022/04/28 06:22:44;;;;;;;14.25;11.43;;;;;;;;;;4973108;28;20125;-68
2022/04/28 06:25:11;;;;;;;13.95;11.82;;;;;;;;;;4972571;28;20416;-68
2022/04/28 06:27:38;;;;;;;14.63;11.85;;;;;;;;;;4973052;28;20433;-69
2022/04/28 06:30:05;;;;;;;13.48;11.13;;;;;;;;;;4972801;28;20505;-69
2022/04/28 06:32:32;;;;;;;13.68;10.80;;;;;;;;;;4972898;28;20109;-69
2022/04/28 06:34:59;;;;;;;13.50;10.77;;;;;;;;;;4972660;28;20553;-68
2022/04/28 06:37:25;;;;;;;12.73;10.55;;;;;;;;;;4972589;28;20098;-68
2022/04/28 06:39:52;;;;;;;13.60;10.85;;;;;;;;;;4972836;28;20062;-69
2022/04/28 06:42:19;;;;;;;13.73;10.68;;;;;;;;;;4972584;28;20062;-68
2022/04/28 06:44:45;;;;;;;12.35;10.38;;;;;;;;;;4972538;28;20409;-69
2022/04/28 06:47:12;;;;;;;12.32;10.48;;;;;;;;;;4968892;28;20054;-67
2022/04/28 06:49:39;;;;;;;11.88;9.63;;;;;;;;;;4988417;28;20876;-68
2022/04/28 06:52:06;;;;;;;12.02;10.30;;;;;;;;;;4995371;28;20042;-68
2022/04/28 06:54:32;;;;;;;10.70;8.95;;;;;;;;;;4991946;28;20042;-67
2022/04/28 06:56:59;;;;;;;10.52;8.88;;;;;;;;;;4990133;28;20045;-68
2022/04/28 06:59:26;;;;;;;11.32;9.15;;;;;;;;;;4990707;28;20497;-68
2022/04/28 07:01:53;;;;;;;9.20;8.30;;;;;;;;;;4990409;28;20046;-68
2022/04/28 07:04:20;;;;;;;10.20;8.57;;;;;;;;;;4990482;28;20054;-68
2022/04/28 07:06:47;;;;;;;10.50;8.38;;;;;;;;;;4990788;28;20119;-68
2022/04/28 07:09:18;;;;;;;10.32;8.02;;;;;;;;;;4990847;28;20061;-68
2022/04/28 07:11:45;;;;;;;9.25;7.95;;;;;;;;;;4990881;28;20061;-68
2022/04/28 07:14:13;;;;;;;9.23;7.57;;;;;;;;;;4990434;28;20141;-68
2022/04/28 07:16:40;;;;;;;8.15;7.28;;;;;;;;;;4990732;28;20520;-68
2022/04/28 07:19:06;;;;;;;9.45;7.28;;;;;;;;;;4990790;28;20108;-68
2022/04/28 07:21:34;;;;;;;11.70;8.07;;;;;;;;;;4991050;28;20054;-67
2022/04/28 07:24:00;;;;;;;8.98;7.70;;;;;;;;;;4990934;28;20050;-69
2022/04/28 07:26:28;;;;;;;7.82;7.03;;;;;;;;;;4990203;28;20038;-68
2022/04/28 07:28:54;;;;;;;8.32;7.05;;;;;;;;;;4990440;28;20406;-69
2022/04/28 07:31:21;;;;;;;8.68;7.15;;;;;;;;;;4986747;28;20054;-75
2022/04/28 07:33:48;;;;;;;9.00;7.35;;;;;;;;;;4992306;28;20046;-77
2022/04/28 07:36:15;;;;;;;7.82;6.82;;;;;;;;;;4991094;28;20047;-73
2022/04/28 07:38:42;;;;;;;9.75;6.95;;;;;;;;;;4990911;28;20156;-73
2022/04/28 07:41:08;;;;;;;9.43;7.45;;;;;;;;;;4991644;28;20062;-74
2022/04/28 07:43:35;;;;;;;9.40;7.63;;;;;;;;;;4994750;28;20047;-65
2022/04/28 07:46:02;;;;;;;8.93;7.60;;;;;;;;;;4992277;28;20053;-67
2022/04/28 07:48:29;;;;;;;8.93;7.70;;;;;;;;;;4981866;28;20553;-67
2022/04/28 07:50:55;;;;;;;9.23;7.50;;;;;;;;;;4990979;28;20057;-68
2022/04/28 07:53:22;;;;;;;12.55;7.93;;;;;;;;;;4991351;28;20056;-67
2022/04/28 07:56:10;;;;;;;8.68;7.40;;;;;;;;;;4992545;28;20054;-67
2022/04/28 07:58:36;;;;;;;9.85;8.38;;;;;;;;;;4991915;28;20058;-67
2022/04/28 08:01:03;;;;;;;9.00;8.10;;;;;;;;;;4992570;28;20116;-67
2022/04/28 08:03:31;;;;;;;11.13;9.88;;;;;;;;;;4992633;28;20054;-67
2022/04/28 08:05:57;;;;;;;9.45;7.85;;;;;;;;;;4992576;28;20444;-67
2022/04/28 08:08:24;;;;;;;9.82;7.93;;;;;;;;;;4992809;28;20061;-67
2022/04/28 08:10:51;;;;;;;12.85;8.82;;;;;;;;;;4998379;28;20081;-67
2022/04/28 08:13:18;;;;;;;10.93;8.60;;;;;;;;;;5012031;28;20050;-67
2022/04/28 08:15:44;;;;;;;8.52;7.25;;;;;;;;;;5034981;22;20049;-65
2022/04/28 08:18:11;;;;;;;9.10;7.70;;;;;;;;;;5012101;28;20488;-65
2022/04/28 08:20:41;;;;;;;9.07;8.18;;;;;;;;;;5011967;28;20049;-65
2022/04/28 08:23:08;;;;;;;9.35;8.18;;;;;;;;;;5012122;28;20053;-65
2022/04/28 08:25:35;;;;;;;9.73;7.80;;;;;;;;;;4998619;28;20053;-65
2022/04/28 08:28:01;;;;;;;9.65;8.55;;;;;;;;;;4992592;28;20566;-65
2022/04/28 08:30:28;;;;;;;8.98;7.68;;;;;;;;;;4992454;28;20512;-65
2022/04/28 08:32:55;;;;;;;9.32;7.68;;;;;;;;;;4991992;28;20058;-65
2022/04/28 08:35:21;;;;;;;8.32;7.30;;;;;;;;;;4992330;28;20057;-65
2022/04/28 08:37:48;;;;;;;7.78;7.00;;;;;;;;;;4992396;28;20702;-65
2022/04/28 08:40:15;;;;;;;11.57;6.85;;;;;;;;;;4992928;28;20050;-65
2022/04/28 08:42:42;;;;;;;8.02;6.40;;;;;;;;;;4991111;28;20101;-65
2022/04/28 08:45:09;;;;;;;6.95;6.25;;;;;;;;;;4992328;28;20054;-65
2022/04/28 08:47:35;;;;;;;7.15;5.78;;;;;;;;;;4992369;28;20097;-65
2022/04/28 08:50:03;;;;;;;7.40;6.28;;;;;;;;;;4992425;28;20190;-65
2022/04/28 08:52:30;;;;;;;8.45;6.18;;;;;;;;;;4991945;28;20082;-65
2022/04/28 08:54:57;;;;;;;7.28;5.47;;;;;;;;;;4992413;28;20066;-65
2022/04/28 08:57:24;;;;;;;7.30;4.97;;;;;;;;;;4991098;28;20046;-65
2022/04/28 08:59:55;;;;;;;5.68;5.10;;;;;;;;;;4992294;28;20081;-65
2022/04/28 09:02:27;;;;;;;6.50;4.75;;;;;;;;;;4991975;28;20398;-65
2022/04/28 09:05:06;;;;;;;8.13;5.17;;;;;;;;;;4992177;28;20054;-65
2022/04/28 09:07:34;;;;;;;6.05;4.78;;;;;;;;;;4992072;28;20051;-65
2022/04/28 09:10:01;;;;;;;5.15;4.03;;;;;;;;;;4993175;28;20054;-65
2022/04/28 09:12:28;;;;;;;5.82;3.60;;;;;;;;;;4978244;28;20493;-65
2022/04/28 09:14:55;;;;;;;4.63;3.13;;;;;;;;;;4995693;28;20057;-65
2022/04/28 09:17:22;;;;;;;3.63;3.25;;;;;;;;;;4994671;28;20046;-65
2022/04/28 09:19:48;;;;;;;4.63;2.47;;;;;;;;;;4995961;28;20054;-65
2022/04/28 09:22:15;;;;;;;3.67;2.58;;;;;;;;;;4978008;28;20558;-65
2022/04/28 09:24:46;;;;;;;3.97;2.90;;;;;;;;;;4995538;28;20108;-65
2022/04/28 09:27:13;;;;;;;5.65;2.85;;;;;;;;;;4995467;28;20398;-65
2022/04/28 09:29:40;;;;;;;3.15;2.72;;;;;;;;;;4995609;28;20057;-65
2022/04/28 09:32:11;;;;;;;3.05;2.75;;;;;;;;;;4995638;28;20059;-65
2022/04/28 09:35:11;;;;;;;4.57;2.75;;;;;;;;;;4999683;28;20119;-65
2022/04/28 09:37:38;;;;;;;3.67;2.42;;;;;;;;;;5014665;28;20125;-65
2022/04/28 09:42:51;;;;;;;2.83;2.42;;;;;;;;;;5014826;28;20147;-65
2022/04/28 09:45:20;;;;;;;3.05;2.67;;;;;;;;;;5014796;28;20054;-65
2022/04/28 09:47:48;;;;;;;3.75;2.60;;;;;;;;;;4997838;28;20046;-65
2022/04/28 09:50:16;;;;;;;2.30;2.10;;;;;;;;;;4987940;28;20054;-65
2022/04/28 09:52:44;;;;;;;3.55;2.35;;;;;;;;;;4995089;28;20061;-65
2022/04/28 09:55:11;;;;;;;2.17;1.98;;;;;;;;;;4995401;28;20054;-65
2022/04/28 09:57:38;;;;;;;2.20;2.00;;;;;;;;;;4995416;28;20058;-65
2022/04/28 10:00:05;;;;;;;4.63;2.10;;;;;;;;;;4995150;28;20057;-65
2022/04/28 10:02:32;;;;;;;3.22;2.17;;;;;;;;;;4994645;28;20054;-65
2022/04/28 10:05:02;;;;;;;2.35;2.00;;;;;;;;;;4993637;28;20061;-65
2022/04/28 10:07:29;;;;;;;2.28;2.08;;;;;;;;;;4994936;28;20484;-67
2022/04/28 10:09:56;;;;;;;3.25;1.98;;;;;;;;;;4993727;28;20058;-66
2022/04/28 10:12:25;;;;;;;3.42;2.50;;;;;;;;;;4994713;28;20050;-66
2022/04/28 10:14:54;;;;;;;2.90;1.88;;;;;;;;;;4994446;28;20468;-66
2022/04/28 10:17:33;;;;;;;2.10;1.92;;;;;;;;;;5004483;28;20536;-66
2022/04/28 10:20:06;;;;;;;3.47;2.25;;;;;;;;;;5013314;28;20182;-65
2022/04/28 10:22:52;;;;;;;2.67;1.73;;;;;;;;;;4999204;28;20057;-66
2022/04/28 10:32:22;;;;;;;2.63;2.10;;;;;;;;;;5014360;28;20054;-66
2022/04/28 10:34:14;;;;;;;2.35;2.15;;;;;;;;;;5013693;28;20085;-66
2022/04/28 10:37:01;;;;;;;2.40;2.15;;;;;;;;;;5013783;28;20045;-66
2022/04/28 10:39:44;;;;;;;3.15;2.40;;;;;;;;;;5012701;28;20054;-66
2022/04/28 10:42:20;;;;;;;4.18;2.33;;;;;;;;;;5013540;28;20100;-66
2022/04/28 10:44:51;;;;;;;3.17;2.10;;;;;;;;;;5000247;28;20461;-66
2022/04/28 10:47:22;;;;;;;2.65;2.30;;;;;;;;;;4994084;28;20694;-66
2022/04/28 10:49:52;;;;;;;2.35;2.13;;;;;;;;;;4994099;28;20432;-66
2022/04/28 10:52:24;;;;;;;5.20;2.20;;;;;;;;;;4993915;28;20531;-66
2022/04/28 10:54:54;;;;;;;3.63;2.42;;;;;;;;;;4993808;28;20054;-66
2022/04/28 10:57:31;;;;;;;2.55;2.25;;;;;;;;;;4994246;28;20105;-66
2022/04/28 11:00:00;;;;;;;3.30;1.90;;;;;;;;;;4993822;28;20103;-66
2022/04/28 11:02:27;;;;;;;2.50;2.00;;;;;;;;;;4993624;28;20395;-66
2022/04/28 11:05:04;;;;;;;2.67;2.10;;;;;;;;;;4993621;28;20416;-65
2022/04/28 11:07:31;;;;;;;3.03;2.13;;;;;;;;;;4992457;28;20046;-66
2022/04/28 11:10:00;;;;;;;2.30;2.10;;;;;;;;;;4993806;28;20061;-65
2022/04/28 11:12:34;;;;;;;2.42;2.22;;;;;;;;;;4995147;28;20054;-65
2022/04/28 11:15:05;;;;;;;2.13;1.92;;;;;;;;;;5012857;28;20505;-65
2022/04/28 11:17:33;;;;;;;2.72;2.15;;;;;;;;;;5012875;28;20052;-65
2022/04/28 11:20:07;;;;;;;4.72;2.33;;;;;;;;;;5013225;28;20511;-65
2022/04/28 11:22:47;;;;;;;3.78;2.10;;;;;;;;;;5012544;28;20406;-65
2022/04/28 11:25:15;;;;;;;2.65;2.45;;;;;;;;;;5001935;28;20061;-65
2022/04/28 11:27:43;;;;;;;3.28;2.30;;;;;;;;;;4991508;28;20552;-65
2022/04/28 11:30:14;;;;;;;5.30;2.10;;;;;;;;;;4993374;28;20137;-67
2022/04/28 11:32:57;;;;;;;2.08;1.80;;;;;;;;;;5011942;28;20112;-66
2022/04/28 11:35:39;;;;;;;2.67;2.05;;;;;;;;;;5010301;28;20056;-67
2022/04/28 11:38:08;;;;;;;4.60;2.13;;;;;;;;;;5011107;28;20046;-65
2022/04/28 11:40:42;;;;;;;2.17;1.88;;;;;;;;;;5008399;28;20513;-66
2022/04/28 11:43:09;;;;;;;1.88;1.65;;;;;;;;;;5011541;28;20073;-67
2022/04/28 11:45:37;;;;;;;2.97;2.00;;;;;;;;;;5010733;28;20054;-67
2022/04/28 11:48:04;;;;;;;2.13;1.92;;;;;;;;;;5010138;28;20042;-66
2022/04/28 11:50:34;;;;;;;2.28;2.03;;;;;;;;;;5012178;28;20468;-67
2022/04/28 11:53:13;;;;;;;1.98;1.83;;;;;;;;;;5011231;28;20053;-66
2022/04/28 11:55:42;;;;;;;3.63;2.38;;;;;;;;;;5009921;28;20112;-65
2022/04/28 11:58:10;;;;;;;2.60;1.80;;;;;;;;;;5009659;28;20096;-65
2022/04/28 12:00:41;;;;;;;2.95;2.05;;;;;;;;;;5007904;28;20096;-66
2022/04/28 12:03:09;;;;;;;3.47;2.10;;;;;;;;;;5009615;28;20053;-66
2022/04/28 12:05:36;;;;;;;2.75;1.60;;;;;;;;;;5020013;28;20647;-64
2022/04/28 12:08:03;;;;;;;3.03;2.28;;;;;;;;;;5016655;28;20042;-65
2022/04/28 12:16:15;;;;;;;3.05;2.25;;;;;;;;;;5001899;28;20050;-65
2022/04/28 12:21:36;;;;;;;2.20;1.80;;;;;;;;;;5003204;28;20107;-65
2022/04/28 12:24:10;;;;;;;2.75;1.77;;;;;;;;;;5005052;28;20046;-65
2022/04/28 12:26:40;;;;;;;3.42;2.10;;;;;;;;;;5005930;28;20088;-65
2022/04/28 12:29:12;;;;;;;2.35;1.50;;;;;;;;;;5000770;28;20477;-64
2022/04/28 12:31:40;;;;;;;2.67;1.80;;;;;;;;;;5004956;28;20559;-65
2022/04/28 12:34:14;;;;;;;2.83;2.05;;;;;;;;;;5004731;28;20112;-66
2022/04/28 12:36:53;;;;;;;2.03;1.70;;;;;;;;;;5007280;28;20065;-65
2022/04/28 12:39:28;;;;;;;2.70;1.65;;;;;;;;;;5002849;28;20089;-65
2022/04/28 12:41:55;;;;;;;2.10;1.70;;;;;;;;;;5010403;28;20049;-66
2022/04/28 12:44:24;;;;;;;2.47;1.95;;;;;;;;;;5010626;28;20049;-66
2022/04/28 12:46:55;;;;;;;2.75;1.60;;;;;;;;;;5013165;28;20045;-66
2022/04/28 12:49:23;;;;;;;1.52;1.42;;;;;;;;;;5014627;28;20111;-66
2022/04/28 12:51:54;;;;;;;2.58;1.80;;;;;;;;;;5014511;28;20050;-66
2022/04/28 12:54:24;;;;;;;3.03;1.88;;;;;;;;;;5014455;28;20132;-66
2022/04/28 12:57:00;;;;;;;3.13;1.42;;;;;;;;;;5014563;28;20050;-66
2022/04/28 12:59:37;;;;;;;2.50;1.65;;;;;;;;;;5012845;28;20046;-66
2022/04/28 13:02:05;;;;;;;2.25;1.67;;;;;;;;;;5013977;28;20524;-66
2022/04/28 13:04:37;;;;;;;3.15;1.88;;;;;;;;;;5006822;28;20046;-65
2022/04/28 13:07:05;;;;;;;1.75;1.63;;;;;;;;;;5010600;28;20585;-65
2022/04/28 13:09:32;;;;;;;2.47;1.52;;;;;;;;;;5010681;28;20043;-66
2022/04/28 13:11:59;;;;;;;2.90;1.60;;;;;;;;;;5013547;28;20076;-71
2022/04/28 13:14:26;;;;;;;3.50;1.90;;;;;;;;;;5007428;28;20057;-65
2022/04/28 13:16:53;;;;;;;1.55;1.45;;;;;;;;;;5005129;28;20053;-64
2022/04/28 13:19:20;;;;;;;3.03;1.95;;;;;;;;;;5013947;28;20424;-65
2022/04/28 13:21:47;;;;;;;2.85;1.67;;;;;;;;;;5013638;28;20058;-65
2022/04/28 13:24:14;;;;;;;3.55;1.65;;;;;;;;;;5011599;28;20456;-65
2022/04/28 13:26:40;;;;;;;2.67;1.50;;;;;;;;;;5012854;28;20136;-65
2022/04/28 13:29:09;;;;;;;5.90;2.45;;;;;;;;;;5012071;28;20206;-65
2022/04/28 13:31:37;;;;;;;4.15;1.90;;;;;;;;;;5013645;28;20078;-65
2022/04/28 13:34:04;;;;;;;2.80;1.80;;;;;;;;;;5013402;28;20141;-65
2022/04/28 13:36:31;;;;;;;2.05;1.83;;;;;;;;;;5013606;28;20045;-66
2022/04/28 13:38:58;;;;;;;2.30;1.80;;;;;;;;;;5013391;28;20042;-65
2022/04/28 13:41:28;;;;;;;3.53;1.80;;;;;;;;;;5009699;28;20089;-65
2022/04/28 13:43:54;;;;;;;2.28;1.90;;;;;;;;;;5010282;28;20460;-65
2022/04/28 13:46:21;;;;;;;1.55;1.45;;;;;;;;;;5013464;28;20412;-65
2022/04/28 13:48:48;;;;;;;3.15;1.52;;;;;;;;;;5012679;28;20081;-65
2022/04/28 13:51:14;;;;;;;2.60;1.40;;;;;;;;;;5012888;28;20046;-65
2022/04/28 13:53:42;;;;;;;2.35;1.58;;;;;;;;;;5012582;28;20052;-66
2022/04/28 13:56:09;;;;;;;2.22;1.90;;;;;;;;;;5012017;28;20164;-66
2022/04/28 13:58:38;;;;;;;3.53;2.08;;;;;;;;;;5011642;28;20045;-66
2022/04/28 14:01:04;;;;;;;2.45;1.83;;;;;;;;;;5011673;28;20045;-66
2022/04/28 14:03:33;;;;;;;2.85;1.63;;;;;;;;;;5011698;28;20137;-65
2022/04/28 14:06:01;;;;;;;2.28;1.67;;;;;;;;;;5012445;28;20552;-66
2022/04/28 14:08:28;;;;;;;1.73;1.63;;;;;;;;;;5011635;28;20042;-66
2022/04/28 14:10:59;;;;;;;1.60;1.45;;;;;;;;;;5012581;28;20065;-66
2022/04/28 14:13:27;;;;;;;2.55;1.88;;;;;;;;;;5009430;28;20049;-66
2022/04/28 14:15:53;;;;;;;2.17;1.58;;;;;;;;;;5012451;28;20050;-66
2022/04/28 14:18:20;;;;;;;2.10;1.50;;;;;;;;;;5012567;28;20099;-65
2022/04/28 14:20:48;;;;;;;2.15;1.50;;;;;;;;;;5012408;28;20467;-66
2022/04/28 14:23:21;;;;;;;2.85;1.75;;;;;;;;;;5011216;28;20050;-66
2022/04/28 14:25:48;;;;;;;1.83;1.70;;;;;;;;;;5012464;28;20067;-65
2022/04/28 14:28:14;;;;;;;3.17;1.30;;;;;;;;;;5008019;28;20049;-65
2022/04/28 14:30:42;;;;;;;2.78;1.80;;;;;;;;;;5012420;28;20053;-65
2022/04/28 14:33:29;;;;;;;1.73;1.63;;;;;;;;;;5003754;28;20512;-66
2022/04/28 14:35:56;;;;;;;5.35;1.70;;;;;;;;;;5004111;28;20425;-67
2022/04/28 14:38:22;;;;;;;2.55;1.92;;;;;;;;;;5011346;28;20137;-66
2022/04/28 14:40:49;;;;;;;2.28;1.77;;;;;;;;;;5013726;28;20124;-66
2022/04/28 14:43:16;;;;;;;4.00;1.70;;;;;;;;;;5010347;28;20574;-66
2022/04/28 14:45:43;;;;;;;2.33;2.13;;;;;;;;;;5014068;28;20073;-66
2022/04/28 14:48:11;;;;;;;2.10;1.90;;;;;;;;;;5012522;28;20053;-66
2022/04/28 14:53:40;;;;;;;2.28;1.88;;;;;;;;;;5014264;28;20053;-66
2022/04/28 14:56:07;;;;;;;4.22;1.63;;;;;;;;;;5013236;28;20080;-66
2022/04/28 14:58:36;;;;;;;2.15;1.73;;;;;;;;;;5013841;28;20069;-66
2022/04/28 15:01:02;;;;;;;3.55;2.13;;;;;;;;;;5014983;28;20073;-66
2022/04/28 15:03:35;;;;;;;1.98;1.65;;;;;;;;;;5013768;28;20054;-66
2022/04/28 15:06:03;;;;;;;1.83;1.73;;;;;;;;;;5014253;28;20509;-66
2022/04/28 15:08:30;;;;;;;2.47;1.90;;;;;;;;;;5010502;28;20041;-66
2022/04/28 15:10:57;;;;;;;3.60;1.75;;;;;;;;;;5013020;28;20045;-66
2022/04/28 15:13:23;;;;;;;1.80;1.70;;;;;;;;;;5011913;28;20511;-66
2022/04/28 15:15:50;;;;;;;2.35;2.03;;;;;;;;;;5009908;28;20703;-66